createdAt,value
2023-05-04T00:02:15.003Z,8.90
2023-05-04T00:07:19.108Z,8.93
2023-05-04T00:12:22.172Z,8.86
2023-05-04T00:17:23.867Z,8.74
2023-05-04T00:22:25.714Z,8.72
2023-05-04T00:27:27.343Z,8.68
2023-05-04T00:32:29.108Z,8.64
2023-05-04T00:37:30.755Z,8.74
2023-05-04T00:42:32.411Z,8.66
2023-05-04T00:47:34.189Z,8.65
2023-05-04T00:52:37.517Z,8.58
2023-05-04T00:57:39.593Z,8.49
2023-05-04T01:02:42.159Z,8.56
2023-05-04T01:08:13.481Z,8.57
2023-05-04T01:13:16.692Z,8.44
2023-05-04T01:18:19.020Z,8.55
2023-05-04T01:23:22.563Z,8.38
2023-05-04T01:28:36.734Z,8.28
2023-05-04T01:33:39.153Z,8.26
2023-05-04T01:38:42.169Z,8.19
2023-05-04T01:43:43.879Z,8.29
2023-05-04T01:48:45.676Z,8.19
2023-05-04T01:53:47.287Z,8.35
2023-05-04T01:58:50.064Z,8.30
2023-05-04T02:03:51.898Z,8.18
2023-05-04T02:08:53.889Z,8.20
2023-05-04T02:13:55.574Z,8.14
2023-05-04T02:18:57.253Z,8.05
2023-05-04T02:23:59.331Z,7.92
2023-05-04T02:29:02.455Z,7.90
2023-05-04T02:34:04.047Z,7.95
2023-05-04T02:39:05.669Z,7.94
2023-05-04T02:44:08.833Z,7.98
2023-05-04T02:49:10.477Z,7.94
2023-05-04T02:54:12.344Z,7.86
2023-05-04T02:59:14.730Z,7.73
2023-05-04T03:04:16.528Z,7.78
2023-05-04T03:09:18.422Z,7.84
2023-05-04T03:14:21.473Z,7.82
2023-05-04T03:19:23.352Z,7.80
2023-05-04T03:24:25.509Z,7.70
2023-05-04T03:29:27.375Z,7.77
2023-05-04T03:34:30.325Z,7.76
2023-05-04T03:39:36.431Z,7.60
2023-05-04T03:44:38.098Z,7.60
2023-05-04T03:49:39.777Z,7.65
2023-05-04T03:54:41.369Z,7.55
2023-05-04T03:59:43.551Z,7.57
2023-05-04T04:04:45.439Z,7.52
2023-05-04T04:09:47.250Z,7.45
2023-05-04T04:14:51.006Z,7.45
2023-05-04T04:19:52.573Z,7.40
2023-05-04T04:24:54.211Z,7.41
2023-05-04T04:29:55.962Z,7.45
2023-05-04T04:34:57.681Z,7.47
2023-05-04T04:39:59.377Z,7.40
2023-05-04T04:45:01.136Z,7.30
2023-05-04T04:50:05.640Z,7.26
2023-05-04T04:55:08.157Z,7.44
2023-05-04T05:00:10.569Z,7.43
2023-05-04T05:05:13.031Z,7.32
2023-05-04T05:10:14.915Z,7.33
2023-05-04T05:15:17.067Z,7.38
2023-05-04T05:20:18.798Z,7.42
2023-05-04T05:25:21.512Z,7.48
2023-05-04T05:30:23.280Z,7.54
2023-05-04T05:35:24.880Z,7.67
2023-05-04T05:40:26.537Z,7.65
2023-05-04T05:45:28.364Z,7.64
2023-05-04T05:50:30.052Z,7.64
2023-05-04T05:55:31.716Z,7.75
2023-05-04T06:00:33.313Z,7.58
2023-05-04T06:05:36.829Z,7.82
2023-05-04T06:10:38.486Z,7.84
2023-05-04T06:15:40.112Z,7.89
2023-05-04T06:20:41.724Z,8.04
2023-05-04T06:25:43.497Z,8.16
2023-05-04T06:30:45.279Z,8.30
2023-05-04T06:35:47.103Z,8.31
2023-05-04T06:40:48.805Z,8.58
2023-05-04T06:45:51.905Z,8.85
2023-05-04T06:50:53.845Z,8.76
2023-05-04T06:55:55.461Z,8.80
2023-05-04T07:00:57.207Z,9.03
2023-05-04T07:05:58.837Z,9.16
2023-05-04T07:11:00.698Z,9.21
2023-05-04T07:16:02.305Z,9.24
2023-05-04T07:21:21.906Z,9.50
2023-05-04T07:26:26.008Z,9.40
2023-05-04T07:31:29.499Z,9.54
2023-05-04T07:36:35.318Z,9.75
2023-05-04T07:41:37.150Z,9.80
2023-05-04T07:46:39.073Z,9.97
2023-05-04T07:51:40.758Z,10.07
2023-05-04T07:56:42.491Z,10.38
2023-05-04T08:01:44.756Z,10.60
2023-05-04T08:06:46.541Z,10.84
2023-05-04T08:11:49.047Z,11.02
2023-05-04T08:16:53.786Z,11.23
2023-05-04T08:21:55.545Z,11.38
2023-05-04T08:27:07.038Z,11.68
2023-05-04T08:32:09.904Z,11.61
2023-05-04T08:37:11.749Z,11.72
2023-05-04T08:42:13.526Z,12.06
2023-05-04T08:47:15.392Z,12.32
2023-05-04T08:52:17.595Z,12.57
2023-05-04T08:57:22.105Z,12.73
2023-05-04T09:02:24.791Z,13.01
2023-05-04T09:07:26.917Z,13.25
2023-05-04T09:12:28.744Z,13.54
2023-05-04T09:17:30.524Z,13.67
2023-05-04T09:22:32.542Z,13.49
2023-05-04T09:27:34.202Z,13.57
2023-05-04T09:32:46.596Z,13.86
2023-05-04T09:37:48.941Z,13.86
2023-05-04T09:42:57.003Z,13.99
2023-05-04T09:47:58.849Z,14.34
2023-05-04T09:53:00.988Z,14.41
2023-05-04T09:58:03.031Z,14.79
2023-05-04T10:03:06.575Z,15.13
2023-05-04T10:08:08.778Z,15.34
2023-05-04T10:13:10.533Z,15.54
2023-05-04T10:18:43.396Z,15.56
2023-05-04T10:24:21.996Z,15.37
2023-05-04T10:29:29.559Z,15.57
2023-05-04T10:34:33.052Z,15.80
2023-05-04T10:39:36.207Z,16.00
2023-05-04T10:44:56.812Z,16.29
2023-05-04T10:50:09.837Z,16.32
2023-05-04T10:55:11.731Z,16.39
2023-05-04T11:00:15.816Z,16.61
2023-05-04T11:05:21.546Z,16.76
2023-05-04T11:10:25.235Z,16.82
2023-05-04T11:15:26.998Z,17.14
2023-05-04T11:20:28.647Z,17.37
2023-05-04T11:25:31.211Z,17.57
2023-05-04T11:30:34.642Z,17.52
2023-05-04T11:35:36.657Z,17.78
2023-05-04T11:40:41.141Z,17.72
2023-05-04T11:45:43.416Z,18.05
2023-05-04T11:50:47.214Z,18.12
2023-05-04T11:55:50.136Z,17.95
2023-05-04T12:00:56.771Z,18.27
2023-05-04T12:05:59.348Z,18.44
2023-05-04T12:11:13.479Z,18.62
2023-05-04T12:16:20.215Z,18.88
2023-05-04T12:21:25.079Z,18.93
2023-05-04T12:26:27.605Z,18.92
2023-05-04T12:31:30.486Z,19.11
2023-05-04T12:36:32.161Z,19.19
2023-05-04T12:41:34.048Z,19.22
2023-05-04T12:46:35.832Z,19.38
2023-05-04T12:51:37.468Z,19.30
2023-05-04T12:56:39.828Z,19.25
2023-05-04T13:01:41.789Z,19.53
2023-05-04T13:06:44.625Z,19.27
2023-05-04T13:11:47.568Z,19.66
2023-05-04T13:16:51.038Z,19.48
2023-05-04T13:21:54.270Z,19.35
2023-05-04T13:26:56.263Z,19.82
2023-05-04T13:31:59.400Z,19.86
2023-05-04T13:37:01.274Z,19.78
2023-05-04T13:42:03.987Z,19.73
2023-05-04T13:47:05.676Z,20.03
2023-05-04T13:52:07.554Z,19.94
2023-05-04T13:57:09.174Z,20.11
2023-05-04T14:02:10.858Z,20.24
2023-05-04T14:07:12.513Z,20.32
2023-05-04T14:12:15.726Z,20.34
2023-05-04T14:17:17.619Z,20.43
2023-05-04T14:22:19.639Z,20.53
2023-05-04T14:27:24.012Z,20.64
2023-05-04T14:32:25.806Z,20.77
2023-05-04T14:37:27.492Z,20.88
2023-05-04T14:42:29.140Z,20.91
2023-05-04T14:47:30.975Z,20.83
2023-05-04T14:52:32.794Z,20.92
2023-05-04T14:57:34.486Z,21.04
2023-05-04T15:02:36.228Z,21.50
2023-05-04T15:07:38.556Z,21.50
2023-05-04T15:12:40.388Z,21.48
2023-05-04T15:17:42.171Z,21.44
2023-05-04T15:22:53.983Z,21.48
2023-05-04T15:27:55.953Z,21.40
2023-05-04T15:32:57.841Z,20.84
2023-05-04T15:38:00.182Z,20.71
2023-05-04T15:43:01.887Z,20.71
2023-05-04T15:48:03.746Z,20.56
2023-05-04T15:53:05.384Z,20.93
2023-05-04T15:58:07.790Z,21.24
2023-05-04T16:03:09.561Z,21.04
2023-05-04T16:08:11.606Z,21.11
2023-05-04T16:13:13.453Z,21.07
2023-05-04T16:18:15.342Z,21.17
2023-05-04T16:23:17.873Z,21.20
2023-05-04T16:28:20.134Z,21.17
2023-05-04T16:33:22.129Z,21.03
2023-05-04T16:38:23.981Z,20.97
2023-05-04T16:43:25.851Z,21.11
2023-05-04T16:48:27.825Z,20.87
2023-05-04T16:53:29.542Z,20.66
2023-05-04T16:58:31.400Z,20.41
2023-05-04T17:03:33.104Z,20.26
2023-05-04T17:08:34.987Z,20.26
2023-05-04T17:13:36.968Z,20.43
2023-05-04T17:18:38.717Z,20.44
2023-05-04T17:23:41.613Z,20.51
2023-05-04T17:28:43.415Z,20.44
2023-05-04T17:33:45.761Z,20.36
2023-05-04T17:38:47.457Z,20.24
2023-05-04T17:43:50.275Z,20.08
2023-05-04T17:48:53.205Z,19.95
2023-05-04T17:53:54.908Z,19.78
2023-05-04T17:58:56.577Z,19.72
2023-05-04T18:03:58.622Z,19.67
2023-05-04T18:09:01.477Z,19.63
2023-05-04T18:14:03.687Z,19.56
2023-05-04T18:19:06.632Z,19.51
2023-05-04T18:24:08.538Z,19.40
2023-05-04T18:29:19.002Z,19.28
2023-05-04T18:34:22.060Z,19.16
2023-05-04T18:39:23.805Z,19.07
2023-05-04T18:44:25.505Z,18.97
2023-05-04T18:49:27.459Z,18.87
2023-05-04T18:54:32.715Z,18.79
2023-05-04T18:59:35.036Z,18.69
2023-05-04T19:04:37.119Z,18.61
2023-05-04T19:09:38.844Z,18.49
2023-05-04T19:14:40.737Z,18.35
2023-05-04T19:19:42.433Z,18.26
2023-05-04T19:24:44.215Z,18.14
2023-05-04T19:29:46.667Z,18.03
2023-05-04T19:34:48.467Z,17.93
2023-05-04T19:39:53.320Z,17.83
2023-05-04T19:44:54.900Z,17.76
2023-05-04T19:49:56.652Z,17.66
2023-05-04T19:54:58.384Z,17.58
2023-05-04T20:00:02.067Z,17.50
2023-05-04T20:05:13.771Z,17.42
2023-05-04T20:10:15.648Z,17.35
2023-05-04T20:15:17.633Z,17.30
2023-05-04T20:20:20.637Z,17.28
2023-05-04T20:25:22.903Z,17.23
2023-05-04T20:30:28.090Z,17.19
2023-05-04T20:35:29.859Z,17.16
2023-05-04T20:40:32.147Z,17.10
2023-05-04T20:45:34.306Z,17.09
2023-05-04T20:50:36.029Z,17.06
2023-05-04T20:55:37.712Z,17.04
2023-05-04T21:00:40.132Z,16.98
2023-05-04T21:05:41.939Z,16.93
2023-05-04T21:10:43.541Z,16.91
2023-05-04T21:15:45.304Z,16.86
2023-05-04T21:20:47.308Z,16.83
2023-05-04T21:25:48.949Z,16.78
2023-05-04T21:30:53.607Z,16.71
2023-05-04T21:35:55.297Z,16.71
2023-05-04T21:40:56.995Z,16.70
2023-05-04T21:45:58.579Z,16.65
2023-05-04T21:51:00.731Z,16.62
2023-05-04T21:56:09.532Z,16.57
2023-05-04T22:01:15.782Z,16.51
2023-05-04T22:06:17.526Z,16.46
2023-05-04T22:11:19.170Z,16.43
2023-05-04T22:16:22.117Z,16.34
2023-05-04T22:21:23.911Z,16.32
2023-05-04T22:26:25.542Z,16.32
2023-05-04T22:31:27.283Z,16.28
2023-05-04T22:36:28.969Z,16.25
2023-05-04T22:41:31.933Z,16.23
2023-05-04T22:46:33.577Z,15.98
2023-05-04T22:51:35.492Z,15.98
2023-05-04T22:56:37.116Z,16.01
2023-05-04T23:01:43.217Z,16.03
2023-05-04T23:06:45.259Z,16.01
2023-05-04T23:11:47.555Z,16.01
2023-05-04T23:16:49.226Z,15.93
2023-05-04T23:21:51.886Z,15.93
2023-05-04T23:26:53.573Z,15.91
2023-05-04T23:31:55.275Z,15.85
2023-05-04T23:36:57.146Z,15.82
2023-05-04T23:41:58.834Z,15.76
2023-05-04T23:47:00.545Z,15.74
2023-05-04T23:52:03.104Z,15.77
2023-05-04T23:57:07.737Z,15.78
